sensor_id;sensor_type;location;lat;lon;timestamp;pressure;altitude;pressure_sealevel;temperature;humidity
10466;BME280;5280;42.600;23.556;2023-09-19T00:01:43;93797.94;;;16.57;93.28
10466;BME280;5280;42.600;23.556;2023-09-19T00:04:12;93808.84;;;16.73;92.43
10466;BME280;5280;42.600;23.556;2023-09-19T00:06:40;93806.28;;;16.81;91.48
10466;BME280;5280;42.600;23.556;2023-09-19T00:09:08;93808.63;;;16.84;91.48
10466;BME280;5280;42.600;23.556;2023-09-19T00:11:36;93799.41;;;16.78;91.80
10466;BME280;5280;42.600;23.556;2023-09-19T00:14:03;93808.25;;;16.79;91.63
10466;BME280;5280;42.600;23.556;2023-09-19T00:16:34;93806.81;;;16.85;91.05
10466;BME280;5280;42.600;23.556;2023-09-19T00:19:01;93798.81;;;16.85;91.45
10466;BME280;5280;42.600;23.556;2023-09-19T00:21:35;93799.06;;;16.91;90.51
10466;BME280;5280;42.600;23.556;2023-09-19T00:24:03;93793.72;;;16.91;91.30
10466;BME280;5280;42.600;23.556;2023-09-19T00:26:34;93781.94;;;16.84;90.65
10466;BME280;5280;42.600;23.556;2023-09-19T00:29:02;93738.91;;;16.32;92.64
10466;BME280;5280;42.600;23.556;2023-09-19T00:31:29;93765.03;;;16.66;91.16
10466;BME280;5280;42.600;23.556;2023-09-19T00:33:56;93786.06;;;16.78;91.74
10466;BME280;5280;42.600;23.556;2023-09-19T00:36:25;93772.66;;;16.61;93.33
10466;BME280;5280;42.600;23.556;2023-09-19T00:38:53;93774.88;;;16.65;92.53
10466;BME280;5280;42.600;23.556;2023-09-19T00:41:20;93777.00;;;16.62;92.49
10466;BME280;5280;42.600;23.556;2023-09-19T00:43:47;93764.81;;;16.50;94.02
10466;BME280;5280;42.600;23.556;2023-09-19T00:46:17;93783.88;;;16.55;94.04
10466;BME280;5280;42.600;23.556;2023-09-19T00:48:44;93773.22;;;16.55;93.61
10466;BME280;5280;42.600;23.556;2023-09-19T00:51:11;93780.38;;;16.54;93.63
10466;BME280;5280;42.600;23.556;2023-09-19T00:53:39;93800.19;;;16.52;94.15
10466;BME280;5280;42.600;23.556;2023-09-19T00:56:13;93802.06;;;16.42;95.74
10466;BME280;5280;42.600;23.556;2023-09-19T00:58:40;93755.94;;;16.22;95.89
10466;BME280;5280;42.600;23.556;2023-09-19T01:01:07;93779.44;;;16.46;95.57
10466;BME280;5280;42.600;23.556;2023-09-19T01:03:34;93765.19;;;16.27;95.85
10466;BME280;5280;42.600;23.556;2023-09-19T01:06:01;93778.22;;;16.30;95.97
10466;BME280;5280;42.600;23.556;2023-09-19T01:08:28;93769.09;;;16.33;95.86
10466;BME280;5280;42.600;23.556;2023-09-19T01:11:00;93778.38;;;16.29;94.98
10466;BME280;5280;42.600;23.556;2023-09-19T01:13:35;93763.66;;;16.25;95.03
10466;BME280;5280;42.600;23.556;2023-09-19T01:16:10;93764.22;;;16.28;95.31
10466;BME280;5280;42.600;23.556;2023-09-19T01:18:45;93681.16;;;15.77;96.34
10466;BME280;5280;42.600;23.556;2023-09-19T01:21:18;93760.78;;;16.09;96.72
10466;BME280;5280;42.600;23.556;2023-09-19T01:27:06;93754.31;;;16.02;98.94
10466;BME280;5280;42.600;23.556;2023-09-19T01:29:42;93776.59;;;16.10;97.52
10466;BME280;5280;42.600;23.556;2023-09-19T01:32:16;93775.34;;;16.05;98.84
10466;BME280;5280;42.600;23.556;2023-09-19T01:34:47;93784.78;;;16.09;98.29
10466;BME280;5280;42.600;23.556;2023-09-19T01:37:16;93773.69;;;16.04;97.48
10466;BME280;5280;42.600;23.556;2023-09-19T01:39:46;93761.47;;;16.01;98.88
10466;BME280;5280;42.600;23.556;2023-09-19T01:42:23;93756.59;;;15.97;98.12
10466;BME280;5280;42.600;23.556;2023-09-19T01:44:57;93763.28;;;16.10;96.89
10466;BME280;5280;42.600;23.556;2023-09-19T01:47:33;93754.91;;;15.96;98.63
10466;BME280;5280;42.600;23.556;2023-09-19T01:50:10;93753.50;;;15.91;99.02
10466;BME280;5280;42.600;23.556;2023-09-19T01:52:45;93721.03;;;15.69;98.71
10466;BME280;5280;42.600;23.556;2023-09-19T01:55:14;93750.00;;;15.91;99.44
10466;BME280;5280;42.600;23.556;2023-09-19T01:57:49;93737.53;;;15.82;99.85
10466;BME280;5280;42.600;23.556;2023-09-19T02:00:20;93744.81;;;15.89;100.00
10466;BME280;5280;42.600;23.556;2023-09-19T02:02:51;93751.28;;;15.87;100.00
10466;BME280;5280;42.600;23.556;2023-09-19T02:05:25;93742.47;;;15.77;100.00
10466;BME280;5280;42.600;23.556;2023-09-19T02:07:53;93732.81;;;15.66;100.00
10466;BME280;5280;42.600;23.556;2023-09-19T02:10:21;93756.50;;;15.79;99.91
10466;BME280;5280;42.600;23.556;2023-09-19T02:12:48;93704.50;;;15.36;100.00
10466;BME280;5280;42.600;23.556;2023-09-19T02:15:15;93767.56;;;15.74;100.00
10466;BME280;5280;42.600;23.556;2023-09-19T02:17:42;93762.50;;;15.81;99.12
10466;BME280;5280;42.600;23.556;2023-09-19T02:20:11;93752.41;;;15.75;98.95
10466;BME280;5280;42.600;23.556;2023-09-19T02:22:41;93734.63;;;15.66;99.21
10466;BME280;5280;42.600;23.556;2023-09-19T02:25:08;93758.47;;;15.77;99.11
10466;BME280;5280;42.600;23.556;2023-09-19T02:27:35;93754.94;;;15.76;99.38
10466;BME280;5280;42.600;23.556;2023-09-19T02:30:03;93753.81;;;15.69;99.18
10466;BME280;5280;42.600;23.556;2023-09-19T02:32:31;93760.16;;;15.68;100.00
10466;BME280;5280;42.600;23.556;2023-09-19T02:35:01;93780.75;;;15.76;99.05
10466;BME280;5280;42.600;23.556;2023-09-19T02:37:32;93783.84;;;15.71;100.00
10466;BME280;5280;42.600;23.556;2023-09-19T02:40:00;93779.66;;;15.69;99.21
10466;BME280;5280;42.600;23.556;2023-09-19T02:42:27;93782.88;;;15.63;99.55
10466;BME280;5280;42.600;23.556;2023-09-19T02:44:55;93762.13;;;15.57;100.00
10466;BME280;5280;42.600;23.556;2023-09-19T02:47:22;93755.53;;;15.61;100.00
10466;BME280;5280;42.600;23.556;2023-09-19T02:49:49;93758.91;;;15.63;100.00
10466;BME280;5280;42.600;23.556;2023-09-19T02:52:16;93762.84;;;15.59;100.00
10466;BME280;5280;42.600;23.556;2023-09-19T02:54:44;93760.84;;;15.61;100.00
10466;BME280;5280;42.600;23.556;2023-09-19T02:57:11;93754.28;;;15.55;100.00
10466;BME280;5280;42.600;23.556;2023-09-19T02:59:39;93742.94;;;15.53;100.00
10466;BME280;5280;42.600;23.556;2023-09-19T03:02:07;93751.47;;;15.57;100.00
10466;BME280;5280;42.600;23.556;2023-09-19T03:04:35;93745.31;;;15.56;100.00
10466;BME280;5280;42.600;23.556;2023-09-19T03:07:02;93675.94;;;15.19;100.00
10466;BME280;5280;42.600;23.556;2023-09-19T03:09:29;93676.06;;;15.18;100.00
10466;BME280;5280;42.600;23.556;2023-09-19T03:11:57;93703.22;;;15.40;100.00
10466;BME280;5280;42.600;23.556;2023-09-19T03:14:25;93706.47;;;15.44;100.00
10466;BME280;5280;42.600;23.556;2023-09-19T03:16:55;93702.25;;;15.41;100.00
10466;BME280;5280;42.600;23.556;2023-09-19T03:19:24;93699.88;;;15.38;100.00
10466;BME280;5280;42.600;23.556;2023-09-19T03:21:51;93705.63;;;15.43;100.00
10466;BME280;5280;42.600;23.556;2023-09-19T03:24:18;93703.53;;;15.37;100.00
10466;BME280;5280;42.600;23.556;2023-09-19T03:26:45;93699.47;;;15.33;100.00
10466;BME280;5280;42.600;23.556;2023-09-19T03:29:14;93715.16;;;15.36;100.00
10466;BME280;5280;42.600;23.556;2023-09-19T03:31:42;93710.81;;;15.35;100.00
10466;BME280;5280;42.600;23.556;2023-09-19T03:34:09;93707.31;;;15.25;100.00
10466;BME280;5280;42.600;23.556;2023-09-19T03:36:36;93718.94;;;15.24;100.00
10466;BME280;5280;42.600;23.556;2023-09-19T03:39:03;93661.38;;;14.85;100.00
10466;BME280;5280;42.600;23.556;2023-09-19T03:41:30;93731.28;;;15.25;100.00
10466;BME280;5280;42.600;23.556;2023-09-19T03:43:58;93730.44;;;15.25;100.00
10466;BME280;5280;42.600;23.556;2023-09-19T03:46:27;93731.13;;;15.27;100.00
10466;BME280;5280;42.600;23.556;2023-09-19T03:48:54;93670.59;;;14.90;100.00
10466;BME280;5280;42.600;23.556;2023-09-19T03:51:21;93721.03;;;15.21;100.00
10466;BME280;5280;42.600;23.556;2023-09-19T03:53:48;93711.13;;;15.13;100.00
10466;BME280;5280;42.600;23.556;2023-09-19T03:56:16;93643.16;;;14.71;100.00
10466;BME280;5280;42.600;23.556;2023-09-19T03:58:43;93664.44;;;14.90;100.00
10466;BME280;5280;42.600;23.556;2023-09-19T04:01:10;93706.03;;;15.10;100.00
10466;BME280;5280;42.600;23.556;2023-09-19T04:03:39;93712.94;;;15.13;100.00
10466;BME280;5280;42.600;23.556;2023-09-19T04:06:13;93714.03;;;15.10;100.00
10466;BME280;5280;42.600;23.556;2023-09-19T04:08:40;93725.41;;;15.12;100.00
10466;BME280;5280;42.600;23.556;2023-09-19T04:11:07;93729.75;;;15.13;100.00
10466;BME280;5280;42.600;23.556;2023-09-19T04:13:34;93685.59;;;14.82;100.00
10466;BME280;5280;42.600;23.556;2023-09-19T04:16:01;93733.09;;;15.15;100.00
10466;BME280;5280;42.600;23.556;2023-09-19T04:18:29;93727.09;;;15.13;100.00
10466;BME280;5280;42.600;23.556;2023-09-19T04:20:59;93708.47;;;14.94;100.00
10466;BME280;5280;42.600;23.556;2023-09-19T04:23:28;93741.66;;;15.09;100.00
10466;BME280;5280;42.600;23.556;2023-09-19T04:25:57;93743.19;;;15.12;100.00
10466;BME280;5280;42.600;23.556;2023-09-19T04:28:24;93736.72;;;15.04;100.00
10466;BME280;5280;42.600;23.556;2023-09-19T04:30:53;93761.97;;;15.10;100.00
10466;BME280;5280;42.600;23.556;2023-09-19T04:33:20;93747.53;;;15.03;100.00
10466;BME280;5280;42.600;23.556;2023-09-19T04:35:49;93742.22;;;15.03;100.00
10466;BME280;5280;42.600;23.556;2023-09-19T04:38:17;93770.22;;;15.07;100.00
10466;BME280;5280;42.600;23.556;2023-09-19T04:40:47;93763.94;;;15.18;100.00
10466;BME280;5280;42.600;23.556;2023-09-19T04:43:14;93756.94;;;15.17;100.00
10466;BME280;5280;42.600;23.556;2023-09-19T04:45:42;93763.38;;;15.14;100.00
10466;BME280;5280;42.600;23.556;2023-09-19T04:48:09;93745.72;;;15.13;100.00
10466;BME280;5280;42.600;23.556;2023-09-19T04:50:36;93736.59;;;15.06;100.00
10466;BME280;5280;42.600;23.556;2023-09-19T04:53:04;93756.38;;;15.13;100.00
10466;BME280;5280;42.600;23.556;2023-09-19T04:55:32;93753.16;;;15.19;100.00
10466;BME280;5280;42.600;23.556;2023-09-19T04:57:59;93744.59;;;15.16;100.00
10466;BME280;5280;42.600;23.556;2023-09-19T05:00:26;93752.72;;;15.24;100.00
10466;BME280;5280;42.600;23.556;2023-09-19T05:02:56;93735.34;;;15.20;100.00
10466;BME280;5280;42.600;23.556;2023-09-19T05:05:23;93738.16;;;15.18;100.00
10466;BME280;5280;42.600;23.556;2023-09-19T05:07:52;93733.09;;;15.25;100.00
10466;BME280;5280;42.600;23.556;2023-09-19T05:10:19;93716.56;;;15.02;100.00
10466;BME280;5280;42.600;23.556;2023-09-19T05:12:48;93738.28;;;15.26;100.00
10466;BME280;5280;42.600;23.556;2023-09-19T05:15:17;93735.75;;;15.25;100.00
10466;BME280;5280;42.600;23.556;2023-09-19T05:17:48;93728.19;;;15.30;100.00
10466;BME280;5280;42.600;23.556;2023-09-19T05:20:15;93743.47;;;15.37;100.00
10466;BME280;5280;42.600;23.556;2023-09-19T05:22:50;93741.09;;;15.44;100.00
10466;BME280;5280;42.600;23.556;2023-09-19T05:25:23;93688.13;;;15.12;100.00
10466;BME280;5280;42.600;23.556;2023-09-19T05:27:54;93727.78;;;15.54;100.00
10466;BME280;5280;42.600;23.556;2023-09-19T05:30:21;93720.91;;;15.61;100.00
10466;BME280;5280;42.600;23.556;2023-09-19T05:32:48;93720.31;;;15.67;100.00
10466;BME280;5280;42.600;23.556;2023-09-19T05:35:15;93677.16;;;15.44;100.00
10466;BME280;5280;42.600;23.556;2023-09-19T05:37:41;93670.72;;;15.56;100.00
10466;BME280;5280;42.600;23.556;2023-09-19T05:40:09;93706.38;;;15.92;100.00
10466;BME280;5280;42.600;23.556;2023-09-19T05:42:38;93709.44;;;15.97;100.00
10466;BME280;5280;42.600;23.556;2023-09-19T05:45:09;93711.22;;;16.06;100.00
10466;BME280;5280;42.600;23.556;2023-09-19T05:47:38;93696.47;;;16.12;100.00
10466;BME280;5280;42.600;23.556;2023-09-19T05:50:06;93714.22;;;16.30;100.00
10466;BME280;5280;42.600;23.556;2023-09-19T05:52:34;93708.75;;;16.32;100.00
10466;BME280;5280;42.600;23.556;2023-09-19T05:55:03;93713.03;;;16.43;100.00
10466;BME280;5280;42.600;23.556;2023-09-19T05:57:30;93705.19;;;16.41;100.00
10466;BME280;5280;42.600;23.556;2023-09-19T05:59:57;93712.81;;;16.63;100.00
10466;BME280;5280;42.600;23.556;2023-09-19T06:02:26;93703.81;;;16.64;100.00
10466;BME280;5280;42.600;23.556;2023-09-19T06:04:55;93677.84;;;16.57;100.00
10466;BME280;5280;42.600;23.556;2023-09-19T06:07:22;93674.31;;;16.66;100.00
10466;BME280;5280;42.600;23.556;2023-09-19T06:09:51;93694.09;;;16.91;100.00
10466;BME280;5280;42.600;23.556;2023-09-19T06:12:19;93680.72;;;16.91;99.97
10466;BME280;5280;42.600;23.556;2023-09-19T06:14:45;93694.41;;;17.05;98.82
10466;BME280;5280;42.600;23.556;2023-09-19T06:17:13;93676.84;;;17.03;99.03
10466;BME280;5280;42.600;23.556;2023-09-19T06:19:41;93667.31;;;17.00;98.83
10466;BME280;5280;42.600;23.556;2023-09-19T06:22:14;93650.34;;;17.09;97.74
10466;BME280;5280;42.600;23.556;2023-09-19T06:24:45;93681.16;;;17.39;97.50
10466;BME280;5280;42.600;23.556;2023-09-19T06:27:12;93622.00;;;17.08;97.71
10466;BME280;5280;42.600;23.556;2023-09-19T06:29:39;93640.50;;;17.28;95.53
10466;BME280;5280;42.600;23.556;2023-09-19T06:32:07;93678.41;;;17.67;94.87
10466;BME280;5280;42.600;23.556;2023-09-19T06:34:35;93644.97;;;17.45;95.39
10466;BME280;5280;42.600;23.556;2023-09-19T06:37:04;93693.06;;;17.88;94.15
10466;BME280;5280;42.600;23.556;2023-09-19T06:39:31;93684.97;;;17.98;93.21
10466;BME280;5280;42.600;23.556;2023-09-19T06:41:58;93698.75;;;18.11;91.23
10466;BME280;5280;42.600;23.556;2023-09-19T06:44:27;93661.72;;;17.98;90.48
10466;BME280;5280;42.600;23.556;2023-09-19T06:46:57;93691.44;;;18.21;89.82
10466;BME280;5280;42.600;23.556;2023-09-19T06:49:24;93691.31;;;18.31;89.56
10466;BME280;5280;42.600;23.556;2023-09-19T06:51:54;93680.63;;;18.31;88.07
10466;BME280;5280;42.600;23.556;2023-09-19T06:54:24;93695.69;;;18.40;87.15
10466;BME280;5280;42.600;23.556;2023-09-19T06:56:50;93642.59;;;18.19;87.58
10466;BME280;5280;42.600;23.556;2023-09-19T06:59:17;93690.97;;;18.60;86.78
10466;BME280;5280;42.600;23.556;2023-09-19T07:01:46;93686.31;;;18.70;87.40
10466;BME280;5280;42.600;23.556;2023-09-19T07:04:16;93675.78;;;18.76;84.56
10466;BME280;5280;42.600;23.556;2023-09-19T07:06:49;93683.53;;;19.04;82.13
10466;BME280;5280;42.600;23.556;2023-09-19T07:09:16;93688.25;;;19.18;80.66
10466;BME280;5280;42.600;23.556;2023-09-19T07:11:47;93636.97;;;18.88;80.01
10466;BME280;5280;42.600;23.556;2023-09-19T07:14:17;93708.06;;;19.41;80.80
10466;BME280;5280;42.600;23.556;2023-09-19T07:16:44;93695.38;;;19.51;79.28
10466;BME280;5280;42.600;23.556;2023-09-19T07:19:13;93704.41;;;19.58;79.59
10466;BME280;5280;42.600;23.556;2023-09-19T07:21:40;93704.09;;;19.61;79.41
10466;BME280;5280;42.600;23.556;2023-09-19T07:24:07;93702.72;;;19.73;79.26
10466;BME280;5280;42.600;23.556;2023-09-19T07:26:34;93712.28;;;19.76;76.91
10466;BME280;5280;42.600;23.556;2023-09-19T07:29:03;93679.09;;;19.69;76.48
10466;BME280;5280;42.600;23.556;2023-09-19T07:31:30;93707.09;;;19.91;76.56
10466;BME280;5280;42.600;23.556;2023-09-19T07:33:59;93713.63;;;19.96;75.17
10466;BME280;5280;42.600;23.556;2023-09-19T07:36:26;93708.75;;;20.00;73.86
10466;BME280;5280;42.600;23.556;2023-09-19T07:38:55;93710.25;;;19.94;73.26
10466;BME280;5280;42.600;23.556;2023-09-19T07:41:23;93683.22;;;20.04;74.66
10466;BME280;5280;42.600;23.556;2023-09-19T07:43:50;93683.75;;;20.07;73.24
10466;BME280;5280;42.600;23.556;2023-09-19T07:46:18;93653.41;;;19.99;73.08
10466;BME280;5280;42.600;23.556;2023-09-19T07:48:46;93699.78;;;20.24;72.96
10466;BME280;5280;42.600;23.556;2023-09-19T07:51:14;93701.47;;;20.25;71.46
10466;BME280;5280;42.600;23.556;2023-09-19T07:53:41;93681.69;;;20.26;71.98
10466;BME280;5280;42.600;23.556;2023-09-19T07:56:09;93687.91;;;20.26;70.27
10466;BME280;5280;42.600;23.556;2023-09-19T07:58:38;93701.13;;;20.44;71.13
10466;BME280;5280;42.600;23.556;2023-09-19T08:01:07;93698.91;;;20.55;71.52
10466;BME280;5280;42.600;23.556;2023-09-19T08:03:37;93699.38;;;20.59;70.36
10466;BME280;5280;42.600;23.556;2023-09-19T08:06:06;93666.38;;;20.42;70.51
10466;BME280;5280;42.600;23.556;2023-09-19T08:08:36;93620.16;;;20.16;70.05
10466;BME280;5280;42.600;23.556;2023-09-19T08:11:04;93700.31;;;20.74;69.84
10466;BME280;5280;42.600;23.556;2023-09-19T08:13:37;93684.91;;;20.68;70.46
10466;BME280;5280;42.600;23.556;2023-09-19T08:16:08;93714.88;;;20.88;70.15
10466;BME280;5280;42.600;23.556;2023-09-19T08:18:36;93702.78;;;20.92;70.03
10466;BME280;5280;42.600;23.556;2023-09-19T08:21:05;93694.72;;;20.92;69.62
10466;BME280;5280;42.600;23.556;2023-09-19T08:23:36;93707.38;;;21.14;69.83
10466;BME280;5280;42.600;23.556;2023-09-19T08:26:03;93689.44;;;21.07;68.51
10466;BME280;5280;42.600;23.556;2023-09-19T08:28:33;93701.66;;;21.09;68.52
10466;BME280;5280;42.600;23.556;2023-09-19T08:31:02;93700.81;;;21.09;67.58
10466;BME280;5280;42.600;23.556;2023-09-19T08:33:32;93688.91;;;21.03;66.02
10466;BME280;5280;42.600;23.556;2023-09-19T08:36:00;93686.19;;;21.19;68.11
10466;BME280;5280;42.600;23.556;2023-09-19T08:38:30;93641.69;;;21.09;67.88
10466;BME280;5280;42.600;23.556;2023-09-19T08:40:58;93706.34;;;21.46;67.14
10466;BME280;5280;42.600;23.556;2023-09-19T08:43:26;93661.44;;;21.24;65.16
10466;BME280;5280;42.600;23.556;2023-09-19T08:46:03;93637.63;;;21.21;65.69
10466;BME280;5280;42.600;23.556;2023-09-19T08:48:37;93694.34;;;21.57;66.07
10466;BME280;5280;42.600;23.556;2023-09-19T08:51:07;93697.13;;;21.63;65.73
10466;BME280;5280;42.600;23.556;2023-09-19T08:53:40;93693.41;;;21.64;65.13
10466;BME280;5280;42.600;23.556;2023-09-19T08:56:11;93692.50;;;21.72;65.03
10466;BME280;5280;42.600;23.556;2023-09-19T08:58:44;93699.84;;;21.78;64.27
10466;BME280;5280;42.600;23.556;2023-09-19T09:01:15;93698.56;;;21.74;63.71
10466;BME280;5280;42.600;23.556;2023-09-19T09:03:43;93677.16;;;21.80;63.53
10466;BME280;5280;42.600;23.556;2023-09-19T09:06:16;93687.81;;;21.88;62.47
10466;BME280;5280;42.600;23.556;2023-09-19T09:08:44;93685.56;;;22.00;63.12
10466;BME280;5280;42.600;23.556;2023-09-19T09:11:11;93636.75;;;21.66;63.21
10466;BME280;5280;42.600;23.556;2023-09-19T09:13:38;93674.53;;;21.87;64.12
10466;BME280;5280;42.600;23.556;2023-09-19T09:16:07;93678.91;;;21.88;62.61
10466;BME280;5280;42.600;23.556;2023-09-19T09:18:35;93672.97;;;21.92;62.83
10466;BME280;5280;42.600;23.556;2023-09-19T09:21:02;93642.50;;;21.77;62.55
10466;BME280;5280;42.600;23.556;2023-09-19T09:23:31;93646.59;;;21.96;62.82
10466;BME280;5280;42.600;23.556;2023-09-19T09:25:59;93639.69;;;21.94;61.95
10466;BME280;5280;42.600;23.556;2023-09-19T09:28:30;93665.63;;;22.24;62.19
10466;BME280;5280;42.600;23.556;2023-09-19T09:30:59;93657.28;;;22.33;60.41
10466;BME280;5280;42.600;23.556;2023-09-19T09:33:28;93657.56;;;22.39;61.49
10466;BME280;5280;42.600;23.556;2023-09-19T09:35:57;93661.19;;;22.46;60.98
10466;BME280;5280;42.600;23.556;2023-09-19T09:38:27;93619.31;;;22.28;61.55
10466;BME280;5280;42.600;23.556;2023-09-19T09:40:59;93650.41;;;22.60;61.14
10466;BME280;5280;42.600;23.556;2023-09-19T09:43:32;93653.69;;;22.70;60.33
10466;BME280;5280;42.600;23.556;2023-09-19T09:46:13;93641.06;;;22.71;60.31
10466;BME280;5280;42.600;23.556;2023-09-19T09:49:00;93654.66;;;22.69;60.24
10466;BME280;5280;42.600;23.556;2023-09-19T09:51:45;93638.91;;;22.81;60.95
10466;BME280;5280;42.600;23.556;2023-09-19T09:54:24;93637.84;;;22.82;61.61
10466;BME280;5280;42.600;23.556;2023-09-19T09:56:58;93642.56;;;22.95;60.69
10466;BME280;5280;42.600;23.556;2023-09-19T09:59:49;93637.78;;;23.11;60.43
10466;BME280;5280;42.600;23.556;2023-09-19T10:02:17;93636.00;;;23.18;59.23
10466;BME280;5280;42.600;23.556;2023-09-19T10:04:48;93602.41;;;23.00;57.93
10466;BME280;5280;42.600;23.556;2023-09-19T10:07:33;93630.19;;;23.00;57.76
10466;BME280;5280;42.600;23.556;2023-09-19T10:10:06;93630.78;;;23.17;58.87
10466;BME280;5280;42.600;23.556;2023-09-19T10:12:45;93596.25;;;23.06;57.67
10466;BME280;5280;42.600;23.556;2023-09-19T10:15:15;93628.09;;;23.38;57.81
10466;BME280;5280;42.600;23.556;2023-09-19T10:17:44;93621.50;;;23.41;57.70
10466;BME280;5280;42.600;23.556;2023-09-19T10:20:15;93612.91;;;23.52;58.45
10466;BME280;5280;42.600;23.556;2023-09-19T10:22:59;93623.25;;;23.70;57.91
10466;BME280;5280;42.600;23.556;2023-09-19T10:25:28;93605.19;;;23.70;56.69
10466;BME280;5280;42.600;23.556;2023-09-19T10:27:57;93616.53;;;23.87;56.13
10466;BME280;5280;42.600;23.556;2023-09-19T10:30:29;93605.97;;;23.92;54.76
10466;BME280;5280;42.600;23.556;2023-09-19T10:33:00;93612.84;;;23.94;54.05
10466;BME280;5280;42.600;23.556;2023-09-19T10:35:28;93588.31;;;23.89;53.60
10466;BME280;5280;42.600;23.556;2023-09-19T10:37:59;93608.81;;;24.12;55.64
10466;BME280;5280;42.600;23.556;2023-09-19T10:40:27;93606.63;;;24.22;54.28
10466;BME280;5280;42.600;23.556;2023-09-19T10:43:12;93612.25;;;24.27;54.48
10466;BME280;5280;42.600;23.556;2023-09-19T10:45:41;93601.09;;;24.36;53.59
10466;BME280;5280;42.600;23.556;2023-09-19T10:48:10;93603.84;;;24.43;53.00
10466;BME280;5280;42.600;23.556;2023-09-19T10:50:43;93561.03;;;24.12;53.16
10466;BME280;5280;42.600;23.556;2023-09-19T10:53:12;93596.34;;;24.38;53.72
10466;BME280;5280;42.600;23.556;2023-09-19T10:55:49;93555.53;;;24.20;53.15
10466;BME280;5280;42.600;23.556;2023-09-19T10:58:26;93586.38;;;24.39;53.97
10466;BME280;5280;42.600;23.556;2023-09-19T11:01:00;93564.09;;;24.30;53.38
10466;BME280;5280;42.600;23.556;2023-09-19T11:03:32;93531.53;;;24.11;53.84
10466;BME280;5280;42.600;23.556;2023-09-19T11:06:07;93580.31;;;24.37;54.63
10466;BME280;5280;42.600;23.556;2023-09-19T11:08:52;93553.88;;;24.26;52.70
10466;BME280;5280;42.600;23.556;2023-09-19T11:11:47;93588.28;;;24.52;53.38
10466;BME280;5280;42.600;23.556;2023-09-19T11:14:48;93563.97;;;24.52;54.00
10466;BME280;5280;42.600;23.556;2023-09-19T11:17:41;93585.44;;;24.66;52.28
10466;BME280;5280;42.600;23.556;2023-09-19T11:20:22;93568.81;;;24.63;52.41
10466;BME280;5280;42.600;23.556;2023-09-19T11:23:23;93583.63;;;24.73;52.34
10466;BME280;5280;42.600;23.556;2023-09-19T11:25:53;93560.47;;;24.58;53.12
10466;BME280;5280;42.600;23.556;2023-09-19T11:28:33;93573.00;;;24.65;52.61
10466;BME280;5280;42.600;23.556;2023-09-19T11:34:42;93567.41;;;24.73;51.84
10466;BME280;5280;42.600;23.556;2023-09-19T11:40:37;93559.06;;;24.68;53.32
10466;BME280;5280;42.600;23.556;2023-09-19T11:43:29;93557.41;;;24.74;52.92
10466;BME280;5280;42.600;23.556;2023-09-19T11:46:06;93554.72;;;24.74;52.41
10466;BME280;5280;42.600;23.556;2023-09-19T11:48:34;93513.88;;;24.49;53.48
10466;BME280;5280;42.600;23.556;2023-09-19T11:51:15;93465.16;;;24.29;53.62
10466;BME280;5280;42.600;23.556;2023-09-19T11:53:48;93539.41;;;24.94;52.93
10466;BME280;5280;42.600;23.556;2023-09-19T11:56:16;93455.69;;;24.53;52.52
10466;BME280;5280;42.600;23.556;2023-09-19T11:58:45;93532.78;;;25.03;52.16
10466;BME280;5280;42.600;23.556;2023-09-19T12:01:15;93525.31;;;25.18;52.12
10466;BME280;5280;42.600;23.556;2023-09-19T12:03:53;93528.25;;;25.30;50.62
10466;BME280;5280;42.600;23.556;2023-09-19T12:06:21;93518.25;;;25.24;51.24
10466;BME280;5280;42.600;23.556;2023-09-19T12:08:49;93509.91;;;25.19;51.55
10466;BME280;5280;42.600;23.556;2023-09-19T12:11:19;93475.13;;;24.96;51.99
10466;BME280;5280;42.600;23.556;2023-09-19T12:13:53;93511.16;;;25.16;52.65
10466;BME280;5280;42.600;23.556;2023-09-19T12:16:30;93473.03;;;24.92;52.71
10466;BME280;5280;42.600;23.556;2023-09-19T12:19:17;93509.06;;;25.05;52.09
10466;BME280;5280;42.600;23.556;2023-09-19T12:21:58;93501.75;;;25.06;52.93
10466;BME280;5280;42.600;23.556;2023-09-19T12:24:30;93508.25;;;25.05;53.37
10466;BME280;5280;42.600;23.556;2023-09-19T12:27:04;93520.72;;;25.12;53.11
10466;BME280;5280;42.600;23.556;2023-09-19T12:29:32;93503.88;;;25.10;53.92
10466;BME280;5280;42.600;23.556;2023-09-19T12:32:08;93503.47;;;25.13;52.34
10466;BME280;5280;42.600;23.556;2023-09-19T12:34:38;93506.16;;;25.13;51.98
10466;BME280;5280;42.600;23.556;2023-09-19T12:37:10;93513.66;;;25.18;52.06
10466;BME280;5280;42.600;23.556;2023-09-19T12:39:47;93519.69;;;25.13;52.34
10466;BME280;5280;42.600;23.556;2023-09-19T12:42:19;93504.06;;;25.09;52.73
10466;BME280;5280;42.600;23.556;2023-09-19T12:44:49;93478.88;;;24.89;53.64
10466;BME280;5280;42.600;23.556;2023-09-19T12:47:23;93489.91;;;25.07;53.72
10466;BME280;5280;42.600;23.556;2023-09-19T12:50:07;93500.94;;;25.12;51.91
10466;BME280;5280;42.600;23.556;2023-09-19T12:52:38;93500.75;;;25.13;52.38
10466;BME280;5280;42.600;23.556;2023-09-19T12:55:07;93487.41;;;25.12;53.25
10466;BME280;5280;42.600;23.556;2023-09-19T12:57:36;93485.56;;;25.12;53.46
10466;BME280;5280;42.600;23.556;2023-09-19T13:00:06;93449.13;;;24.89;52.71
10466;BME280;5280;42.600;23.556;2023-09-19T13:03:12;93482.22;;;25.17;53.41
10466;BME280;5280;42.600;23.556;2023-09-19T13:05:51;93486.38;;;25.13;52.48
10466;BME280;5280;42.600;23.556;2023-09-19T13:08:26;93467.25;;;25.08;52.36
10466;BME280;5280;42.600;23.556;2023-09-19T13:11:07;93482.03;;;25.25;52.88
10466;BME280;5280;42.600;23.556;2023-09-19T13:13:38;93468.91;;;25.22;52.70
10466;BME280;5280;42.600;23.556;2023-09-19T13:16:05;93469.56;;;25.24;52.87
10466;BME280;5280;42.600;23.556;2023-09-19T13:18:47;93479.31;;;25.32;51.96
10466;BME280;5280;42.600;23.556;2023-09-19T13:21:26;93477.66;;;25.30;52.19
10466;BME280;5280;42.600;23.556;2023-09-19T13:23:56;93456.00;;;25.17;52.48
10466;BME280;5280;42.600;23.556;2023-09-19T13:26:24;93474.53;;;25.34;52.38